createdAt,value
2022-12-28T00:01:25.965Z,2.55
2022-12-28T00:03:53.556Z,3.17
2022-12-28T00:06:21.593Z,2.50
2022-12-28T00:08:49.007Z,2.58
2022-12-28T00:11:26.655Z,2.45
2022-12-28T00:13:58.979Z,1.92
2022-12-28T00:16:27.997Z,2.40
2022-12-28T00:18:56.012Z,2.83
2022-12-28T00:21:23.480Z,2.17
2022-12-28T00:23:54.417Z,2.42
2022-12-28T00:26:25.767Z,2.70
2022-12-28T00:28:56.826Z,2.58
2022-12-28T00:31:29.094Z,2.28
2022-12-28T00:33:56.169Z,1.90
2022-12-28T00:36:23.307Z,2.40
2022-12-28T00:38:50.608Z,2.70
2022-12-28T00:41:17.916Z,2.03
2022-12-28T00:43:46.109Z,2.47
2022-12-28T00:46:13.538Z,2.55
2022-12-28T00:48:40.718Z,2.55
2022-12-28T00:51:07.884Z,3.08
2022-12-28T00:53:35.115Z,2.40
2022-12-28T00:56:13.040Z,2.58
2022-12-28T00:58:40.588Z,2.50
2022-12-28T01:01:12.024Z,3.10
2022-12-28T01:03:39.165Z,3.15
2022-12-28T01:06:11.120Z,2.90
2022-12-28T01:08:38.828Z,2.78
2022-12-28T01:11:12.147Z,3.13
2022-12-28T01:13:39.428Z,3.33
2022-12-28T01:16:13.724Z,3.10
2022-12-28T01:18:41.104Z,3.25
2022-12-28T01:21:13.201Z,3.05
2022-12-28T01:23:40.402Z,2.80
2022-12-28T01:26:08.072Z,3.47
2022-12-28T01:28:35.341Z,3.20
2022-12-28T01:31:06.967Z,3.17
2022-12-28T01:33:34.098Z,3.10
2022-12-28T01:36:06.163Z,2.92
2022-12-28T01:41:01.021Z,3.00
2022-12-28T01:43:40.159Z,2.92
2022-12-28T01:46:08.999Z,2.92
2022-12-28T01:48:37.454Z,2.53
2022-12-28T01:51:04.883Z,3.08
2022-12-28T01:53:32.160Z,3.30
2022-12-28T01:55:59.310Z,3.55
2022-12-28T01:58:29.200Z,2.60
2022-12-28T02:00:56.430Z,3.30
2022-12-28T02:03:26.658Z,3.65
2022-12-28T02:05:55.115Z,3.42
2022-12-28T02:08:41.481Z,2.95
2022-12-28T02:11:12.039Z,3.30
2022-12-28T02:13:39.892Z,3.30
2022-12-28T02:16:08.485Z,3.85
2022-12-28T02:18:35.662Z,3.15
2022-12-28T02:21:11.086Z,3.22
2022-12-28T02:23:38.365Z,3.42
2022-12-28T02:26:24.026Z,3.10
2022-12-28T02:29:17.193Z,2.92
2022-12-28T02:32:03.077Z,2.65
2022-12-28T02:34:34.684Z,3.35
2022-12-28T02:37:10.362Z,3.15
2022-12-28T02:39:40.665Z,3.60
2022-12-28T02:42:09.842Z,3.33
2022-12-28T02:44:56.079Z,3.40
2022-12-28T02:47:42.343Z,2.80
2022-12-28T02:50:11.167Z,2.85
2022-12-28T02:53:06.573Z,3.10
2022-12-28T02:56:07.920Z,3.60
2022-12-28T02:58:48.885Z,2.78
2022-12-28T03:01:19.112Z,3.58
2022-12-28T03:03:46.265Z,3.15
2022-12-28T03:06:37.739Z,3.65
2022-12-28T03:09:04.818Z,3.83
2022-12-28T03:11:44.887Z,3.78
2022-12-28T03:14:15.422Z,3.72
2022-12-28T03:17:03.286Z,3.45
2022-12-28T03:19:53.451Z,3.75
2022-12-28T03:22:41.220Z,3.20
2022-12-28T03:25:30.401Z,3.88
2022-12-28T03:28:17.521Z,3.50
2022-12-28T03:31:05.167Z,3.40
2022-12-28T03:33:32.689Z,3.78
2022-12-28T03:36:18.651Z,2.97
2022-12-28T03:38:54.082Z,3.50
2022-12-28T03:41:27.927Z,3.20
2022-12-28T03:43:56.854Z,3.33
2022-12-28T03:46:44.787Z,3.00
2022-12-28T03:49:12.445Z,3.53
2022-12-28T03:51:40.469Z,3.53
2022-12-28T03:54:07.617Z,2.95
2022-12-28T03:56:34.737Z,2.90
2022-12-28T03:59:01.818Z,3.47
2022-12-28T04:01:29.044Z,2.95
2022-12-28T04:03:56.304Z,2.78
2022-12-28T04:06:23.451Z,3.47
2022-12-28T04:08:50.620Z,2.70
2022-12-28T04:11:17.833Z,2.90
2022-12-28T04:13:44.928Z,2.58
2022-12-28T04:16:13.131Z,2.97
2022-12-28T04:18:41.792Z,2.92
2022-12-28T04:21:09.614Z,3.00
2022-12-28T04:23:36.956Z,2.45
2022-12-28T04:26:04.250Z,2.60
2022-12-28T04:28:31.953Z,2.58
2022-12-28T04:31:00.031Z,2.50
2022-12-28T04:33:27.578Z,2.25
2022-12-28T04:35:54.693Z,2.05
2022-12-28T04:38:22.123Z,2.78
2022-12-28T04:40:49.284Z,2.08
2022-12-28T04:43:17.554Z,2.33
2022-12-28T04:45:44.623Z,2.35
2022-12-28T04:48:11.697Z,2.17
2022-12-28T04:50:38.817Z,2.30
2022-12-28T04:53:05.901Z,2.47
2022-12-28T04:55:34.902Z,2.38
2022-12-28T04:58:02.026Z,2.83
2022-12-28T05:00:29.205Z,2.72
2022-12-28T05:02:58.838Z,2.80
2022-12-28T05:05:26.210Z,2.80
2022-12-28T05:07:53.355Z,3.42
2022-12-28T05:10:20.477Z,3.20
2022-12-28T05:12:47.603Z,2.58
2022-12-28T05:15:14.712Z,2.55
2022-12-28T05:17:41.841Z,3.35
2022-12-28T05:20:09.159Z,3.13
2022-12-28T05:22:40.726Z,3.05
2022-12-28T05:27:35.196Z,3.25
2022-12-28T05:30:02.303Z,3.13
2022-12-28T05:32:29.367Z,3.08
2022-12-28T05:34:56.451Z,3.20
2022-12-28T05:37:23.562Z,4.03
2022-12-28T05:39:50.747Z,3.17
2022-12-28T05:42:17.830Z,3.53
2022-12-28T05:44:44.885Z,3.55
2022-12-28T05:47:13.726Z,3.67
2022-12-28T05:49:40.850Z,4.00
2022-12-28T05:52:08.006Z,4.30
2022-12-28T05:54:35.226Z,3.85
2022-12-28T05:57:02.360Z,4.75
2022-12-28T05:59:29.433Z,3.80
2022-12-28T06:01:56.656Z,3.88
2022-12-28T06:04:24.671Z,4.20
2022-12-28T06:06:51.878Z,4.07
2022-12-28T06:09:18.949Z,3.92
2022-12-28T06:11:46.211Z,4.03
2022-12-28T06:14:13.529Z,4.53
2022-12-28T06:16:41.879Z,4.40
2022-12-28T06:19:10.378Z,4.07
2022-12-28T06:21:38.527Z,4.90
2022-12-28T06:24:06.343Z,4.60
2022-12-28T06:26:34.450Z,4.80
2022-12-28T06:29:02.178Z,5.03
2022-12-28T06:31:39.753Z,5.10
2022-12-28T06:34:07.765Z,4.75
2022-12-28T06:36:34.897Z,4.65
2022-12-28T06:39:02.797Z,5.45
2022-12-28T06:41:30.328Z,5.55
2022-12-28T06:43:57.796Z,4.90
2022-12-28T06:46:25.772Z,5.03
2022-12-28T06:48:53.427Z,5.30
2022-12-28T06:51:21.963Z,5.07
2022-12-28T06:53:50.007Z,5.25
2022-12-28T06:56:24.194Z,5.47
2022-12-28T06:58:55.601Z,5.18
2022-12-28T07:01:27.507Z,5.63
2022-12-28T07:03:55.322Z,4.88
2022-12-28T07:06:24.238Z,5.85
2022-12-28T07:08:51.828Z,5.97
2022-12-28T07:11:20.363Z,5.93
2022-12-28T07:13:47.821Z,5.90
2022-12-28T07:16:16.517Z,6.22
2022-12-28T07:18:43.965Z,5.30
2022-12-28T07:21:17.127Z,5.38
2022-12-28T07:23:44.350Z,5.63
2022-12-28T07:26:12.887Z,5.60
2022-12-28T07:28:50.913Z,5.93
2022-12-28T07:31:19.639Z,5.82
2022-12-28T07:33:47.487Z,4.93
2022-12-28T07:36:15.732Z,6.70
2022-12-28T07:38:43.513Z,5.60
2022-12-28T07:41:12.405Z,6.57
2022-12-28T07:43:39.792Z,7.50
2022-12-28T07:46:11.753Z,6.38
2022-12-28T07:51:10.664Z,6.68
2022-12-28T07:53:38.192Z,7.18
2022-12-28T07:56:05.963Z,6.78
2022-12-28T07:58:33.444Z,6.85
2022-12-28T08:01:06.924Z,6.20
2022-12-28T08:03:34.509Z,6.32
2022-12-28T08:06:12.356Z,6.35
2022-12-28T08:08:40.388Z,6.53
2022-12-28T08:11:10.541Z,6.03
2022-12-28T08:13:38.546Z,5.32
2022-12-28T08:16:06.372Z,5.43
2022-12-28T08:18:33.912Z,6.05
2022-12-28T08:21:02.365Z,5.35
2022-12-28T08:23:30.115Z,5.53
2022-12-28T08:25:57.858Z,5.22
2022-12-28T08:28:24.967Z,5.55
2022-12-28T08:30:52.220Z,5.35
2022-12-28T08:33:19.373Z,5.68
2022-12-28T08:35:46.626Z,5.00
2022-12-28T08:38:13.827Z,5.00
2022-12-28T08:40:41.005Z,5.05
2022-12-28T08:43:08.230Z,5.28
2022-12-28T08:45:35.386Z,5.03
2022-12-28T08:48:02.506Z,4.78
2022-12-28T08:50:31.718Z,5.25
2022-12-28T08:52:59.050Z,5.70
2022-12-28T08:55:26.310Z,5.40
2022-12-28T08:57:53.454Z,4.93
2022-12-28T09:00:20.591Z,5.05
2022-12-28T09:02:47.779Z,4.68
2022-12-28T09:05:15.004Z,4.75
2022-12-28T09:07:42.122Z,4.60
2022-12-28T09:10:09.565Z,4.93
2022-12-28T09:12:36.754Z,4.43
2022-12-28T09:15:03.900Z,4.18
2022-12-28T09:17:31.140Z,4.50
2022-12-28T09:19:58.250Z,4.53
2022-12-28T09:22:25.353Z,4.15
2022-12-28T09:24:52.514Z,4.40
2022-12-28T09:27:19.678Z,4.75
2022-12-28T09:29:46.794Z,5.15
2022-12-28T09:32:13.875Z,6.05
2022-12-28T09:34:40.959Z,4.97
2022-12-28T09:37:08.820Z,5.68
2022-12-28T09:39:36.142Z,5.90
2022-12-28T09:42:05.199Z,5.57
2022-12-28T09:44:35.320Z,6.03
2022-12-28T09:47:20.813Z,6.10
2022-12-28T09:50:06.554Z,5.70
2022-12-28T09:52:49.864Z,5.20
2022-12-28T09:55:18.183Z,6.55
2022-12-28T09:57:54.047Z,5.22
2022-12-28T10:00:22.622Z,5.45
2022-12-28T10:02:55.596Z,5.20
2022-12-28T10:05:23.381Z,5.28
2022-12-28T10:07:51.686Z,4.90
2022-12-28T10:10:19.422Z,4.78
2022-12-28T10:12:46.853Z,5.95
2022-12-28T10:15:15.078Z,4.80
2022-12-28T10:17:42.815Z,4.70
2022-12-28T10:20:17.484Z,4.47
2022-12-28T10:22:49.985Z,4.60
2022-12-28T10:25:21.585Z,4.55
2022-12-28T10:27:48.772Z,4.00
2022-12-28T10:30:29.718Z,4.30
2022-12-28T10:33:02.607Z,4.20
2022-12-28T10:35:33.537Z,3.80
2022-12-28T10:38:02.893Z,4.32
2022-12-28T10:40:31.574Z,3.97
2022-12-28T10:42:59.061Z,3.67
2022-12-28T10:45:34.264Z,3.78
2022-12-28T10:48:01.950Z,3.20
2022-12-28T10:50:38.361Z,3.45
2022-12-28T10:53:05.803Z,3.60
2022-12-28T10:55:33.991Z,3.20
2022-12-28T10:58:29.092Z,3.45
2022-12-28T11:01:08.109Z,4.05
2022-12-28T11:03:37.197Z,3.10
2022-12-28T11:06:26.251Z,2.92
2022-12-28T11:09:12.984Z,2.95
2022-12-28T11:11:40.575Z,2.78
2022-12-28T11:14:27.956Z,2.80
2022-12-28T11:16:55.103Z,2.90
2022-12-28T11:19:22.380Z,3.00
2022-12-28T11:21:49.847Z,3.15
2022-12-28T11:24:17.771Z,2.58
2022-12-28T11:26:46.949Z,2.78
2022-12-28T11:29:15.683Z,2.67
2022-12-28T11:31:45.746Z,2.75
2022-12-28T11:34:16.628Z,2.88
2022-12-28T11:36:43.896Z,2.80
2022-12-28T11:39:26.331Z,2.38
2022-12-28T11:42:27.720Z,2.13
2022-12-28T11:44:41.119Z,2.63
2022-12-28T11:47:17.343Z,2.42
2022-12-28T11:49:45.485Z,2.97
2022-12-28T11:52:15.623Z,2.72
2022-12-28T11:54:52.803Z,2.75
2022-12-28T11:57:35.136Z,2.58
2022-12-28T12:00:22.173Z,2.38
2022-12-28T12:03:01.336Z,3.05
2022-12-28T12:05:37.899Z,3.35
2022-12-28T12:08:14.322Z,3.17
2022-12-28T12:10:44.866Z,2.78
2022-12-28T12:13:42.547Z,2.40
2022-12-28T12:16:18.030Z,2.55
2022-12-28T12:18:47.584Z,2.30
2022-12-28T12:21:31.845Z,2.10
2022-12-28T12:24:05.930Z,2.55
2022-12-28T12:26:41.577Z,2.67
2022-12-28T12:29:15.951Z,2.08
2022-12-28T12:31:47.929Z,2.17
2022-12-28T12:36:53.029Z,2.42
2022-12-28T12:39:26.073Z,1.80
2022-12-28T12:41:56.229Z,1.92
2022-12-28T12:44:34.346Z,1.70
2022-12-28T12:47:20.419Z,2.08
2022-12-28T12:50:07.948Z,1.70
2022-12-28T12:52:42.845Z,1.42
2022-12-28T12:55:15.945Z,1.70
2022-12-28T12:57:53.013Z,1.38
2022-12-28T13:00:24.408Z,1.88
2022-12-28T13:03:06.769Z,1.58
2022-12-28T13:05:35.868Z,1.50
2022-12-28T13:08:04.401Z,1.33
2022-12-28T13:10:31.583Z,1.40
2022-12-28T13:12:59.795Z,1.08
2022-12-28T13:15:27.450Z,1.60
2022-12-28T13:18:34.447Z,1.63
2022-12-28T13:20:59.692Z,1.63
2022-12-28T13:23:27.623Z,1.98
2022-12-28T13:25:56.618Z,1.60
2022-12-28T13:28:27.878Z,1.65
2022-12-28T13:31:15.297Z,1.58
2022-12-28T13:33:42.387Z,1.50
2022-12-28T13:36:18.034Z,1.45
2022-12-28T13:38:45.279Z,1.65
2022-12-28T13:41:26.133Z,1.45
2022-12-28T13:43:59.141Z,1.80
2022-12-28T13:46:26.470Z,1.38
2022-12-28T13:48:54.867Z,1.70
2022-12-28T13:51:22.330Z,1.50
2022-12-28T13:53:52.039Z,2.05
2022-12-28T13:56:20.131Z,1.80
2022-12-28T13:58:53.288Z,1.45
2022-12-28T14:01:23.212Z,1.65
2022-12-28T14:03:50.496Z,1.80
2022-12-28T14:06:18.874Z,1.70
2022-12-28T14:08:46.249Z,1.92
2022-12-28T14:11:13.421Z,2.20
2022-12-28T14:13:40.807Z,2.47
2022-12-28T14:16:08.760Z,3.15
2022-12-28T14:18:36.095Z,2.53
2022-12-28T14:21:04.176Z,2.67
2022-12-28T14:23:32.689Z,2.25
2022-12-28T14:26:00.957Z,2.70
2022-12-28T14:28:41.006Z,2.50
2022-12-28T14:31:09.110Z,2.55
2022-12-28T14:33:52.680Z,2.60
2022-12-28T14:36:25.054Z,2.50
2022-12-28T14:38:53.540Z,2.28
2022-12-28T14:41:27.450Z,2.80
2022-12-28T14:43:56.245Z,2.45
2022-12-28T14:46:37.166Z,3.63
2022-12-28T14:49:23.310Z,2.67
2022-12-28T14:51:50.672Z,2.90
2022-12-28T14:54:22.563Z,2.58
2022-12-28T14:56:52.630Z,4.35
2022-12-28T14:59:25.972Z,2.95
2022-12-28T15:01:53.243Z,2.78
2022-12-28T15:04:26.683Z,3.30
2022-12-28T15:06:54.893Z,3.03
2022-12-28T15:09:22.338Z,3.13
2022-12-28T15:11:49.581Z,2.75
2022-12-28T15:14:16.654Z,2.38
2022-12-28T15:16:44.760Z,2.63
2022-12-28T15:19:11.978Z,2.63
2022-12-28T15:21:39.099Z,2.67
2022-12-28T15:24:06.425Z,2.22
2022-12-28T15:26:33.511Z,2.45
2022-12-28T15:29:04.883Z,2.25
2022-12-28T15:31:32.062Z,2.63
2022-12-28T15:33:59.324Z,2.60
2022-12-28T15:36:26.486Z,2.53
2022-12-28T15:38:56.206Z,2.25
2022-12-28T15:41:42.388Z,3.20
2022-12-28T15:44:09.529Z,2.63
2022-12-28T15:46:36.710Z,2.72
2022-12-28T15:49:04.273Z,3.42
2022-12-28T15:51:31.384Z,3.35
2022-12-28T15:53:58.504Z,3.05
2022-12-28T15:56:27.337Z,2.55
2022-12-28T15:58:55.609Z,2.72
2022-12-28T16:01:23.447Z,2.47
2022-12-28T16:03:54.562Z,2.72
2022-12-28T16:06:22.462Z,2.10
2022-12-28T16:08:49.918Z,2.22
2022-12-28T16:11:18.370Z,2.10
2022-12-28T16:13:50.517Z,2.20
2022-12-28T16:16:17.649Z,2.10
2022-12-28T16:18:44.813Z,2.10
2022-12-28T16:21:12.439Z,1.88
2022-12-28T16:23:40.613Z,2.30
2022-12-28T16:26:08.650Z,1.85
2022-12-28T16:28:36.054Z,2.10
2022-12-28T16:31:03.304Z,2.10
2022-12-28T16:33:30.482Z,1.92
2022-12-28T16:35:59.766Z,2.35
2022-12-28T16:38:28.616Z,2.60
2022-12-28T16:40:56.863Z,2.28
2022-12-28T16:43:24.507Z,2.03
2022-12-28T16:45:51.697Z,2.65
2022-12-28T16:48:18.878Z,3.13
2022-12-28T16:50:46.280Z,1.90
2022-12-28T16:53:13.374Z,2.42
2022-12-28T16:55:41.485Z,2.17
2022-12-28T16:58:09.204Z,2.15
2022-12-28T17:00:36.379Z,2.45
2022-12-28T17:03:03.674Z,2.10
2022-12-28T17:05:35.181Z,1.88
2022-12-28T17:08:02.776Z,2.30
2022-12-28T17:10:30.286Z,2.00
2022-12-28T17:12:57.902Z,2.45
2022-12-28T17:15:25.131Z,1.70
2022-12-28T17:17:52.463Z,2.10
2022-12-28T17:20:19.546Z,1.83
2022-12-28T17:22:46.866Z,2.22
2022-12-28T17:25:14.736Z,1.98
2022-12-28T17:27:41.890Z,2.67
2022-12-28T17:30:09.252Z,1.92
2022-12-28T17:32:36.371Z,2.47
2022-12-28T17:35:03.492Z,2.17
2022-12-28T17:37:30.680Z,2.13
2022-12-28T17:39:58.101Z,3.00
2022-12-28T17:42:25.399Z,2.45
2022-12-28T17:44:52.568Z,2.15
2022-12-28T17:47:19.703Z,2.10
2022-12-28T17:49:46.894Z,2.38
2022-12-28T17:52:20.141Z,2.38
2022-12-28T17:54:47.478Z,2.05
2022-12-28T17:57:14.872Z,2.60
2022-12-28T17:59:42.004Z,2.40
2022-12-28T18:02:12.736Z,2.17
2022-12-28T18:04:40.737Z,2.10
2022-12-28T18:07:08.734Z,2.20
2022-12-28T18:09:35.829Z,2.17
2022-12-28T18:12:03.043Z,2.47
2022-12-28T18:14:30.186Z,2.60
2022-12-28T18:16:57.436Z,3.05
2022-12-28T18:19:24.675Z,2.75
2022-12-28T18:21:51.765Z,2.95
2022-12-28T18:24:21.045Z,2.17
2022-12-28T18:26:49.053Z,2.72
2022-12-28T18:29:16.163Z,2.40
2022-12-28T18:31:43.288Z,2.70
2022-12-28T18:34:10.429Z,2.08
2022-12-28T18:36:37.556Z,2.45
2022-12-28T18:39:05.050Z,2.97
2022-12-28T18:41:34.240Z,2.33
2022-12-28T18:44:02.782Z,2.53
2022-12-28T18:46:30.294Z,3.03
2022-12-28T18:48:57.916Z,2.70
2022-12-28T18:51:25.197Z,2.70
2022-12-28T18:53:52.435Z,2.70
2022-12-28T18:56:20.439Z,3.13
2022-12-28T18:58:54.860Z,2.70
2022-12-28T19:02:04.574Z,2.20
2022-12-28T19:04:11.748Z,3.08
2022-12-28T19:06:39.243Z,2.85
2022-12-28T19:09:07.022Z,3.10
2022-12-28T19:11:34.495Z,2.80
2022-12-28T19:14:05.724Z,2.80
2022-12-28T19:16:33.426Z,2.85
2022-12-28T19:19:00.933Z,3.05
2022-12-28T19:21:29.631Z,2.78
2022-12-28T19:23:58.036Z,2.85
2022-12-28T19:26:25.445Z,3.03
2022-12-28T19:28:52.777Z,2.95
2022-12-28T19:31:20.016Z,2.72
2022-12-28T19:33:47.275Z,2.60
2022-12-28T19:36:14.428Z,3.40
2022-12-28T19:38:41.636Z,2.75
2022-12-28T19:41:09.953Z,2.65
2022-12-28T19:43:37.449Z,2.63
2022-12-28T19:46:09.907Z,2.50
2022-12-28T19:48:37.462Z,2.00
2022-12-28T19:51:04.941Z,2.40
2022-12-28T19:53:32.094Z,2.60
2022-12-28T19:56:09.928Z,3.38
2022-12-28T19:58:39.321Z,2.60
2022-12-28T20:01:07.763Z,2.78
2022-12-28T20:03:35.530Z,1.98
2022-12-28T20:06:09.562Z,2.40
2022-12-28T20:08:36.913Z,2.55
2022-12-28T20:11:04.365Z,2.45
2022-12-28T20:13:32.120Z,2.45
2022-12-28T20:15:59.427Z,2.38
2022-12-28T20:18:26.607Z,1.90
2022-12-28T20:21:18.463Z,2.65
2022-12-28T20:23:40.927Z,2.25
2022-12-28T20:26:08.255Z,2.30
2022-12-28T20:28:35.434Z,2.63
2022-12-28T20:31:07.219Z,2.35
2022-12-28T20:33:35.216Z,2.25
2022-12-28T20:36:04.387Z,2.70
2022-12-28T20:38:31.843Z,2.10
2022-12-28T20:41:07.107Z,2.15
2022-12-28T20:43:34.464Z,2.30
2022-12-28T20:46:01.714Z,2.40
2022-12-28T20:48:28.972Z,2.20
2022-12-28T20:50:57.249Z,2.58
2022-12-28T20:53:24.506Z,1.92
2022-12-28T20:55:52.265Z,2.08
2022-12-28T20:58:20.279Z,2.67
2022-12-28T21:00:48.262Z,2.75
2022-12-28T21:03:15.469Z,2.70
2022-12-28T21:05:42.580Z,2.50
2022-12-28T21:08:10.397Z,2.67
2022-12-28T21:10:37.571Z,2.80
2022-12-28T21:13:04.650Z,2.58
2022-12-28T21:15:31.886Z,2.88
2022-12-28T21:17:59.415Z,2.97
2022-12-28T21:20:26.672Z,3.13
2022-12-28T21:22:54.347Z,2.67
2022-12-28T21:25:21.465Z,2.65
2022-12-28T21:27:48.629Z,2.85
2022-12-28T21:30:15.747Z,3.35
2022-12-28T21:32:44.043Z,3.13
2022-12-28T21:35:11.573Z,2.80
2022-12-28T21:37:38.663Z,2.95
2022-12-28T21:40:07.768Z,3.15
2022-12-28T21:42:35.497Z,3.25
2022-12-28T21:45:03.302Z,3.00
2022-12-28T21:47:41.603Z,3.13
2022-12-28T21:50:09.429Z,2.92
2022-12-28T21:52:37.445Z,3.22
2022-12-28T21:55:24.293Z,3.00
2022-12-28T21:57:51.723Z,3.22
2022-12-28T22:00:37.432Z,3.30
2022-12-28T22:03:23.477Z,3.75
2022-12-28T22:06:02.743Z,2.97
2022-12-28T22:08:48.498Z,3.58
2022-12-28T22:11:34.472Z,3.05
2022-12-28T22:14:01.641Z,3.30
2022-12-28T22:16:28.817Z,3.22
2022-12-28T22:19:03.832Z,3.33
2022-12-28T22:21:31.506Z,3.50
2022-12-28T22:23:58.685Z,3.33
2022-12-28T22:26:25.861Z,2.90
2022-12-28T22:28:53.070Z,2.67
2022-12-28T22:31:23.372Z,3.35
2022-12-28T22:33:50.632Z,2.55
2022-12-28T22:36:19.108Z,2.78
2022-12-28T22:38:46.799Z,3.17
2022-12-28T22:41:14.303Z,2.58
2022-12-28T22:43:41.561Z,2.78
2022-12-28T22:46:10.173Z,2.85
2022-12-28T22:48:37.609Z,2.30
2022-12-28T22:51:08.675Z,2.83
2022-12-28T22:53:39.228Z,2.60
2022-12-28T22:56:08.134Z,2.42
2022-12-28T22:58:35.291Z,2.50
2022-12-28T23:01:09.639Z,2.92
2022-12-28T23:03:40.733Z,2.72
2022-12-28T23:06:08.840Z,3.00
2022-12-28T23:08:36.006Z,2.72
2022-12-28T23:11:05.503Z,2.50
2022-12-28T23:13:33.490Z,2.55
2022-12-28T23:16:05.841Z,2.60
2022-12-28T23:18:53.873Z,2.92
2022-12-28T23:21:41.314Z,2.60
2022-12-28T23:24:30.935Z,2.72
2022-12-28T23:27:17.609Z,2.70
2022-12-28T23:29:45.297Z,2.45
2022-12-28T23:32:12.676Z,2.25
2022-12-28T23:34:39.873Z,2.75
2022-12-28T23:37:07.064Z,2.90
2022-12-28T23:39:34.226Z,3.22
2022-12-28T23:42:01.387Z,3.30
2022-12-28T23:44:28.696Z,2.95
2022-12-28T23:46:59.357Z,2.45
2022-12-28T23:49:27.003Z,4.60
2022-12-28T23:51:54.171Z,3.50
2022-12-28T23:54:21.371Z,2.72
2022-12-28T23:56:51.786Z,2.58
2022-12-28T23:59:19.059Z,2.70
